createdAt,value
2018-12-22T00:00:12.065Z,-4.3
2018-12-22T00:01:02.173Z,-4.3
2018-12-22T00:01:52.707Z,-4.3
2018-12-22T00:02:42.597Z,-4.3
2018-12-22T00:03:32.084Z,-4.3
2018-12-22T00:04:22.404Z,-4.3
2018-12-22T00:05:12.467Z,-4.3
2018-12-22T00:06:02.530Z,-4.3
2018-12-22T00:06:52.584Z,-4.3
2018-12-22T00:07:42.632Z,-4.3
2018-12-22T00:08:32.425Z,-4.3
2018-12-22T00:09:22.749Z,-4.3
2018-12-22T00:10:12.804Z,-4.3
2018-12-22T00:11:02.859Z,-4.3
2018-12-22T00:11:52.987Z,-4.3
2018-12-22T00:12:42.974Z,-4.3
2018-12-22T00:13:33.282Z,-4.3
2018-12-22T00:14:23.089Z,-4.3
2018-12-22T00:32:35.135Z,-4.3
2018-12-22T00:33:25.667Z,-4.3
2018-12-22T00:34:15.723Z,-4.3
2018-12-22T00:35:05.784Z,-4.3
2018-12-22T00:35:55.567Z,-4.3
2018-12-22T00:36:45.890Z,-4.4
2018-12-22T00:37:36.190Z,-4.3
2018-12-22T00:38:26.008Z,-4.4
2018-12-22T00:39:15.770Z,-4.3
2018-12-22T00:40:06.113Z,-4.3
2018-12-22T00:40:56.164Z,-4.3
2018-12-22T00:41:45.972Z,-4.4
2018-12-22T00:42:36.295Z,-4.3
2018-12-22T00:43:25.783Z,-4.3
2018-12-22T00:44:16.113Z,-4.4
2018-12-22T00:45:06.443Z,-4.4
2018-12-22T00:45:56.501Z,-4.3
2018-12-22T00:46:46.565Z,-4.4
2018-12-22T00:47:36.623Z,-4.3
2018-12-22T00:48:26.643Z,-4.4
2018-12-22T00:49:16.735Z,-4.3
2018-12-22T00:50:06.522Z,-4.4
2018-12-22T00:50:56.853Z,-4.4
2018-12-22T00:51:46.968Z,-4.4
2018-12-22T00:52:36.690Z,-4.4
2018-12-22T00:53:27.028Z,-4.4
2018-12-22T00:54:18.773Z,-4.4
2018-12-22T00:55:07.135Z,-4.4
2018-12-22T00:55:56.994Z,-4.4
2018-12-22T00:56:47.242Z,-4.4
2018-12-22T00:57:37.310Z,-4.4
2018-12-22T00:58:32.547Z,-4.4
2018-12-22T00:59:17.420Z,-4.4
2018-12-22T01:00:07.320Z,-4.4
2018-12-22T01:00:57.853Z,-4.4
2018-12-22T01:01:47.598Z,-4.4
2018-12-22T01:02:37.644Z,-4.4
2018-12-22T01:03:27.698Z,-4.4
2018-12-22T01:04:17.755Z,-4.4
2018-12-22T01:05:07.805Z,-4.4
2018-12-22T01:05:57.878Z,-4.4
2018-12-22T01:06:48.173Z,-4.4
2018-12-22T01:07:37.986Z,-4.4
2018-12-22T01:08:28.050Z,-4.4
2018-12-22T01:09:18.103Z,-4.4
2018-12-22T01:10:08.153Z,-4.4
2018-12-22T01:10:58.220Z,-4.4
2018-12-22T01:11:48.271Z,-4.4
2018-12-22T01:12:38.060Z,-4.4
2018-12-22T01:13:28.110Z,-4.4
2018-12-22T01:14:18.182Z,-4.4
2018-12-22T01:15:08.497Z,-4.4
2018-12-22T01:15:58.557Z,-4.4
2018-12-22T01:16:48.365Z,-4.4
2018-12-22T01:17:38.675Z,-4.4
2018-12-22T01:18:28.455Z,-4.4
2018-12-22T01:19:18.782Z,-4.4
2018-12-22T01:20:08.842Z,-4.4
2018-12-22T01:20:58.625Z,-4.4
2018-12-22T01:21:48.962Z,-4.4
2018-12-22T01:22:38.724Z,-4.4
2018-12-22T01:23:29.062Z,-4.4
2018-12-22T01:24:19.125Z,-4.4
2018-12-22T01:25:09.175Z,-4.4
2018-12-22T01:25:59.217Z,-4.4
2018-12-22T01:26:49.022Z,-4.4
2018-12-22T01:27:39.645Z,-4.5
2018-12-22T01:28:29.400Z,-4.4
2018-12-22T01:29:19.184Z,-4.4
2018-12-22T01:30:09.532Z,-4.4
2018-12-22T01:30:59.619Z,-4.4
2018-12-22T01:31:49.629Z,-4.4
2018-12-22T01:32:39.685Z,-4.4
2018-12-22T01:33:29.757Z,-4.4
2018-12-22T01:34:19.522Z,-4.4
2018-12-22T01:35:09.854Z,-4.5
2018-12-22T01:35:59.909Z,-4.4
2018-12-22T01:36:49.975Z,-4.4
2018-12-22T01:37:39.749Z,-4.4
2018-12-22T01:38:29.779Z,-4.4
2018-12-22T01:39:20.157Z,-4.4
2018-12-22T01:40:10.197Z,-4.4
2018-12-22T01:41:00.259Z,-4.4
2018-12-22T01:41:50.313Z,-4.4
2018-12-22T01:42:40.367Z,-4.5
2018-12-22T01:43:30.727Z,-4.5
2018-12-22T01:44:20.487Z,-4.5
2018-12-22T01:45:10.540Z,-4.5
2018-12-22T01:46:00.559Z,-4.5
2018-12-22T01:46:50.377Z,-4.5
2018-12-22T01:47:40.172Z,-4.5
2018-12-22T01:48:30.609Z,-4.5
2018-12-22T01:49:20.814Z,-4.5
2018-12-22T01:50:10.621Z,-4.4
2018-12-22T01:51:00.996Z,-4.5
2018-12-22T01:51:50.989Z,-4.5
2018-12-22T01:52:40.769Z,-4.5
2018-12-22T01:53:31.112Z,-4.6
2018-12-22T01:54:20.879Z,-4.6
2018-12-22T01:55:11.213Z,-4.6
2018-12-22T01:56:01.271Z,-4.6
2018-12-22T01:56:51.340Z,-4.5
2018-12-22T01:57:41.111Z,-4.5
2018-12-22T01:58:31.159Z,-4.5
2018-12-22T01:59:21.233Z,-4.6
2018-12-22T02:00:11.556Z,-4.6
2018-12-22T02:01:01.343Z,-4.6
2018-12-22T02:01:51.675Z,-4.6
2018-12-22T02:02:41.458Z,-4.6
2018-12-22T02:03:31.760Z,-4.6
2018-12-22T02:04:21.843Z,-4.6
2018-12-22T02:05:11.900Z,-4.6
2018-12-22T02:06:01.955Z,-4.6
2018-12-22T02:06:52.013Z,-4.6
2018-12-22T02:07:42.068Z,-4.6
2018-12-22T02:08:31.857Z,-4.6
2018-12-22T02:09:21.914Z,-4.6
2018-12-22T02:10:12.315Z,-4.6
2018-12-22T02:11:02.010Z,-4.6
2018-12-22T02:11:52.350Z,-4.6
2018-12-22T02:12:42.402Z,-4.6
2018-12-22T02:13:32.185Z,-4.6
2018-12-22T02:14:22.515Z,-4.6
2018-12-22T02:15:12.567Z,-4.6
2018-12-22T02:16:02.357Z,-4.6
2018-12-22T02:16:52.677Z,-4.6
2018-12-22T02:17:42.737Z,-4.6
2018-12-22T02:18:32.772Z,-4.6
2018-12-22T02:19:23.157Z,-4.6
2018-12-22T02:20:12.635Z,-4.6
2018-12-22T02:21:02.962Z,-4.6
2018-12-22T02:21:52.754Z,-4.6
2018-12-22T02:22:43.079Z,-4.6
2018-12-22T02:23:33.134Z,-4.6
2018-12-22T02:24:23.237Z,-4.6
2018-12-22T02:25:13.255Z,-4.6
2018-12-22T02:26:03.307Z,-4.6
2018-12-22T02:26:53.087Z,-4.7
2018-12-22T02:27:43.420Z,-4.7
2018-12-22T02:28:33.476Z,-4.7
2018-12-22T02:29:23.869Z,-4.7
2018-12-22T02:30:13.608Z,-4.6
2018-12-22T02:31:03.422Z,-4.6
2018-12-22T02:31:53.129Z,-4.7
2018-12-22T02:32:43.590Z,-4.7
2018-12-22T02:33:33.811Z,-4.7
2018-12-22T02:34:23.871Z,-4.7
2018-12-22T02:35:13.944Z,-4.7
2018-12-22T02:36:03.578Z,-4.7
2018-12-22T02:36:53.776Z,-4.7
2018-12-22T02:37:43.822Z,-4.7
2018-12-22T02:38:34.165Z,-4.7
2018-12-22T02:39:24.035Z,-4.7
2018-12-22T02:40:13.981Z,-4.7
2018-12-22T02:41:04.322Z,-4.7
2018-12-22T02:41:54.097Z,-4.7
2018-12-22T02:42:44.437Z,-4.7
2018-12-22T02:43:34.479Z,-4.7
2018-12-22T02:44:24.279Z,-4.8
2018-12-22T02:45:14.658Z,-4.8
2018-12-22T02:46:04.661Z,-4.8
2018-12-22T02:46:54.434Z,-4.8
2018-12-22T02:47:44.771Z,-4.8
2018-12-22T02:48:34.569Z,-4.8
2018-12-22T02:49:24.952Z,-4.8
2018-12-22T02:50:14.961Z,-4.8
2018-12-22T02:51:04.728Z,-4.8
2018-12-22T02:51:55.051Z,-4.8
2018-12-22T02:52:45.113Z,-4.8
2018-12-22T02:53:35.176Z,-4.8
2018-12-22T02:54:25.233Z,-4.8
2018-12-22T02:55:15.284Z,-4.8
2018-12-22T02:56:05.070Z,-4.8
2018-12-22T02:56:55.107Z,-4.8
2018-12-22T02:57:44.905Z,-4.8
2018-12-22T02:58:35.554Z,-4.8
2018-12-22T02:59:25.567Z,-4.8
2018-12-22T03:00:15.860Z,-4.8
2018-12-22T03:01:05.401Z,-4.8
2018-12-22T03:01:55.745Z,-4.8
2018-12-22T03:02:45.520Z,-4.8
2018-12-22T03:03:35.864Z,-4.8
2018-12-22T03:04:25.478Z,-4.8
2018-12-22T03:05:15.670Z,-4.8
2018-12-22T03:06:06.026Z,-4.8
2018-12-22T03:06:55.772Z,-4.8
2018-12-22T03:07:45.582Z,-4.8
2018-12-22T03:08:36.206Z,-4.8
2018-12-22T03:09:26.046Z,-4.8
2018-12-22T03:10:16.537Z,-4.8
2018-12-22T03:11:06.370Z,-4.8
2018-12-22T03:11:56.410Z,-4.8
2018-12-22T03:12:46.251Z,-4.8
2018-12-22T03:13:36.242Z,-4.8
2018-12-22T03:14:26.302Z,-4.8
2018-12-22T03:15:16.357Z,-4.8
2018-12-22T03:16:05.963Z,-4.8
2018-12-22T03:16:56.272Z,-4.8
2018-12-22T03:17:46.299Z,-4.8
2018-12-22T03:18:36.387Z,-4.8
2018-12-22T03:19:26.452Z,-4.8
2018-12-22T03:20:16.317Z,-4.8
2018-12-22T03:21:06.019Z,-4.9
2018-12-22T03:21:56.334Z,-4.8
2018-12-22T03:22:46.679Z,-4.8
2018-12-22T03:23:36.719Z,-4.8
2018-12-22T03:24:26.509Z,-4.8
2018-12-22T03:25:16.834Z,-4.8
2018-12-22T03:26:06.895Z,-4.8
2018-12-22T03:26:57.156Z,-4.8
2018-12-22T03:27:47.501Z,-4.9
2018-12-22T03:28:37.548Z,-4.9
2018-12-22T03:29:26.855Z,-4.8
2018-12-22T03:30:17.670Z,-4.8
2018-12-22T03:31:07.623Z,-4.9
2018-12-22T03:31:57.813Z,-4.8
2018-12-22T03:32:47.863Z,-4.9
2018-12-22T03:33:37.876Z,-4.8
2018-12-22T03:34:27.663Z,-4.9
2018-12-22T03:35:18.088Z,-4.9
2018-12-22T03:36:08.055Z,-4.9
2018-12-22T03:36:58.103Z,-4.8
2018-12-22T03:37:48.161Z,-4.9
2018-12-22T03:38:38.236Z,-4.9
2018-12-22T03:39:28.292Z,-4.9
2018-12-22T03:40:18.334Z,-4.8
2018-12-22T03:41:08.383Z,-4.9
2018-12-22T03:41:58.448Z,-4.9
2018-12-22T03:42:48.498Z,-4.9
2018-12-22T03:43:38.280Z,-4.9
2018-12-22T03:44:28.048Z,-4.9
2018-12-22T03:45:18.670Z,-4.9
2018-12-22T03:46:08.717Z,-4.9
2018-12-22T03:46:59.046Z,-4.9
2018-12-22T03:47:48.553Z,-4.9
2018-12-22T03:48:38.987Z,-4.9
2018-12-22T03:49:29.003Z,-4.9
2018-12-22T03:50:19.000Z,-4.9
2018-12-22T03:51:08.777Z,-4.9
2018-12-22T03:51:58.555Z,-4.9
2018-12-22T03:52:49.188Z,-4.9
2018-12-22T03:53:39.237Z,-4.9
2018-12-22T03:54:29.343Z,-4.9
2018-12-22T03:55:18.783Z,-4.9
2018-12-22T03:56:09.431Z,-4.9
2018-12-22T03:56:59.466Z,-4.9
2018-12-22T03:57:49.515Z,-4.9
2018-12-22T03:58:39.291Z,-4.9
2018-12-22T03:59:29.879Z,-4.9
2018-12-22T04:00:19.117Z,-4.9
2018-12-22T04:01:09.739Z,-4.9
2018-12-22T04:01:59.789Z,-4.9
2018-12-22T04:02:49.581Z,-4.9
2018-12-22T04:03:39.734Z,-4.9
2018-12-22T04:04:29.963Z,-4.9
2018-12-22T04:05:19.890Z,-4.9
2018-12-22T04:06:10.096Z,-4.9
2018-12-22T04:06:59.867Z,-4.9
2018-12-22T04:07:50.184Z,-4.9
2018-12-22T04:08:40.234Z,-4.9
2018-12-22T04:09:30.321Z,-4.9
2018-12-22T04:10:20.074Z,-4.9
2018-12-22T04:11:10.128Z,-4.9
2018-12-22T04:12:00.476Z,-4.9
2018-12-22T04:12:50.258Z,-4.9
2018-12-22T04:13:40.979Z,-4.9
2018-12-22T04:14:30.617Z,-4.9
2018-12-22T04:15:20.410Z,-4.9
2018-12-22T04:16:10.483Z,-4.9
2018-12-22T04:17:00.256Z,-4.9
2018-12-22T04:17:50.853Z,-4.9
2018-12-22T04:18:40.910Z,-4.9
2018-12-22T04:19:30.415Z,-4.9
2018-12-22T04:20:21.031Z,-4.9
2018-12-22T04:21:11.080Z,-4.9
2018-12-22T04:22:01.292Z,-4.9
2018-12-22T04:22:51.189Z,-4.9
2018-12-22T04:23:41.495Z,-4.9
2018-12-22T04:24:31.303Z,-4.9
2018-12-22T04:25:21.656Z,-4.9
2018-12-22T04:26:11.162Z,-4.9
2018-12-22T04:27:01.482Z,-4.9
2018-12-22T04:27:51.539Z,-4.9
2018-12-22T04:28:41.604Z,-4.9
2018-12-22T04:29:35.339Z,-4.9
2018-12-22T04:30:21.761Z,-4.9
2018-12-22T04:31:11.758Z,-4.9
2018-12-22T04:32:01.813Z,-4.9
2018-12-22T04:32:51.604Z,-4.9
2018-12-22T04:33:41.921Z,-4.9
2018-12-22T04:34:31.991Z,-4.9
2018-12-22T04:35:22.044Z,-4.9
2018-12-22T04:36:12.335Z,-4.9
2018-12-22T04:37:02.159Z,-4.9
2018-12-22T04:37:52.206Z,-4.9
2018-12-22T04:38:42.260Z,-4.9
2018-12-22T04:39:32.336Z,-4.9
2018-12-22T04:40:22.091Z,-4.9
2018-12-22T04:41:12.427Z,-4.9
2018-12-22T04:42:02.495Z,-4.9
2018-12-22T04:42:52.608Z,-4.9
2018-12-22T04:43:42.596Z,-4.9
2018-12-22T04:44:32.661Z,-4.9
2018-12-22T05:01:52.764Z,-4.9
2018-12-22T05:02:42.806Z,-4.9
2018-12-22T05:03:32.605Z,-4.9
2018-12-22T05:04:22.641Z,-4.9
2018-12-22T05:05:12.989Z,-4.9
2018-12-22T05:06:03.029Z,-4.9
2018-12-22T05:06:53.111Z,-4.9
2018-12-22T05:07:43.134Z,-4.9
2018-12-22T05:08:33.183Z,-4.9
2018-12-22T05:09:23.246Z,-4.9
2018-12-22T05:10:13.301Z,-4.9
2018-12-22T05:11:03.495Z,-4.9
2018-12-22T05:11:53.403Z,-4.9
2018-12-22T05:12:42.918Z,-4.9
2018-12-22T05:13:33.574Z,-4.9
2018-12-22T05:14:23.597Z,-4.9
2018-12-22T05:15:13.654Z,-4.9
2018-12-22T05:16:03.710Z,-4.9
2018-12-22T05:16:53.756Z,-4.9
2018-12-22T05:17:43.800Z,-4.9
2018-12-22T05:18:33.855Z,-4.9
2018-12-22T05:19:23.649Z,-4.9
2018-12-22T05:20:16.031Z,-4.9
2018-12-22T05:21:04.026Z,-4.9
2018-12-22T05:21:53.812Z,-4.9
2018-12-22T05:22:44.192Z,-4.9
2018-12-22T05:23:34.193Z,-4.9
2018-12-22T05:24:24.265Z,-4.9
2018-12-22T05:25:14.302Z,-4.9
2018-12-22T05:26:04.365Z,-4.9
2018-12-22T05:26:54.422Z,-4.9
2018-12-22T05:27:44.467Z,-4.9
2018-12-22T05:28:34.250Z,-4.9
2018-12-22T05:29:24.592Z,-4.9
2018-12-22T05:30:14.367Z,-4.9
2018-12-22T05:31:04.707Z,-4.9
2018-12-22T05:31:54.757Z,-4.9
2018-12-22T05:32:45.112Z,-4.9
2018-12-22T05:33:34.880Z,-4.9
2018-12-22T05:34:25.048Z,-4.9
2018-12-22T05:35:14.715Z,-4.9
2018-12-22T05:36:05.264Z,-4.9
2018-12-22T05:36:55.096Z,-4.9
2018-12-22T05:37:45.164Z,-4.9
2018-12-22T05:38:34.929Z,-4.9
2018-12-22T05:39:25.279Z,-4.9
2018-12-22T05:40:15.044Z,-4.9
2018-12-22T05:41:05.111Z,-4.9
2018-12-22T05:41:54.971Z,-4.9
2018-12-22T05:42:45.215Z,-4.9
2018-12-22T05:43:35.548Z,-4.9
2018-12-22T05:44:25.605Z,-4.9
2018-12-22T05:45:15.655Z,-4.9
2018-12-22T05:46:05.438Z,-4.9
2018-12-22T05:46:55.805Z,-4.9
2018-12-22T05:47:45.542Z,-4.9
2018-12-22T05:48:35.887Z,-4.9
2018-12-22T05:49:25.665Z,-4.9
2018-12-22T05:50:15.995Z,-4.9
2018-12-22T05:51:05.775Z,-4.9
2018-12-22T05:51:56.108Z,-4.9
2018-12-22T05:52:46.160Z,-4.9
2018-12-22T05:53:36.225Z,-5
2018-12-22T05:54:26.312Z,-4.9
2018-12-22T05:55:16.055Z,-4.9
2018-12-22T05:56:06.392Z,-5
2018-12-22T05:56:56.447Z,-5
2018-12-22T05:57:46.230Z,-5
2018-12-22T05:58:36.279Z,-5
2018-12-22T05:59:26.619Z,-5
2018-12-22T06:00:15.844Z,-4.9
2018-12-22T06:01:06.727Z,-4.9
2018-12-22T06:01:56.507Z,-4.9
2018-12-22T06:02:46.839Z,-5
2018-12-22T06:03:36.347Z,-5
2018-12-22T06:04:26.959Z,-5
2018-12-22T06:05:18.342Z,-5
2018-12-22T06:06:07.070Z,-5
2018-12-22T06:06:56.844Z,-5
2018-12-22T06:07:47.182Z,-5
2018-12-22T06:08:37.232Z,-5
2018-12-22T06:09:27.014Z,-5
2018-12-22T06:10:17.352Z,-5
2018-12-22T06:11:07.403Z,-5
2018-12-22T06:11:57.579Z,-5
2018-12-22T06:12:47.529Z,-5
2018-12-22T06:13:37.576Z,-5
2018-12-22T06:14:27.631Z,-5
2018-12-22T06:15:17.404Z,-5
2018-12-22T06:16:07.479Z,-5
2018-12-22T06:16:57.799Z,-5
2018-12-22T06:17:47.857Z,-5
2018-12-22T06:18:37.636Z,-5
2018-12-22T06:19:27.976Z,-5
2018-12-22T06:20:17.754Z,-5
2018-12-22T06:21:07.801Z,-5
2018-12-22T06:21:57.898Z,-5
2018-12-22T06:22:47.928Z,-5
2018-12-22T06:23:38.259Z,-5
2018-12-22T06:24:28.044Z,-5
2018-12-22T06:25:18.399Z,-5
2018-12-22T06:26:08.155Z,-5
2018-12-22T06:26:58.194Z,-5
2018-12-22T06:27:48.531Z,-4.9
2018-12-22T06:28:38.583Z,-5
2018-12-22T06:29:28.648Z,-5
2018-12-22T06:30:18.703Z,-5
2018-12-22T06:31:08.480Z,-4.9
2018-12-22T06:31:58.813Z,-5
2018-12-22T06:32:48.598Z,-5
2018-12-22T06:33:38.938Z,-4.9
2018-12-22T06:34:28.162Z,-4.9
2018-12-22T06:35:19.045Z,-4.9
2018-12-22T06:36:08.820Z,-4.9
2018-12-22T06:36:58.877Z,-4.9
2018-12-22T06:37:49.200Z,-4.9
2018-12-22T06:38:41.108Z,-4.9
2018-12-22T06:39:29.325Z,-4.9
2018-12-22T06:40:19.070Z,-4.9
2018-12-22T06:41:09.441Z,-4.9
2018-12-22T06:41:59.504Z,-4.9
2018-12-22T06:42:49.558Z,-4.9
2018-12-22T06:43:39.326Z,-4.9
2018-12-22T06:44:29.665Z,-4.9
2018-12-22T06:45:19.497Z,-4.9
2018-12-22T06:46:09.500Z,-4.9
2018-12-22T06:46:59.825Z,-4.9
2018-12-22T06:47:49.607Z,-4.9
2018-12-22T06:48:39.949Z,-4.9
2018-12-22T06:49:29.997Z,-4.9
2018-12-22T06:50:20.065Z,-4.9
2018-12-22T06:51:10.114Z,-4.9
2018-12-22T06:52:00.237Z,-4.9
2018-12-22T06:52:50.262Z,-4.9
2018-12-22T06:53:42.534Z,-4.8
2018-12-22T06:54:30.382Z,-4.8
2018-12-22T06:55:20.637Z,-4.8
2018-12-22T06:56:10.174Z,-4.8
2018-12-22T06:57:00.497Z,-4.8
2018-12-22T06:57:50.564Z,-4.8
2018-12-22T06:58:40.685Z,-4.8
2018-12-22T06:59:30.669Z,-4.8
2018-12-22T07:00:20.467Z,-4.8
2018-12-22T07:01:11.119Z,-4.8
2018-12-22T07:02:00.851Z,-4.7
2018-12-22T07:02:50.959Z,-4.7
2018-12-22T07:03:40.946Z,-4.7
2018-12-22T07:04:30.733Z,-4.7
2018-12-22T07:05:21.060Z,-4.7
2018-12-22T07:06:11.371Z,-4.6
2018-12-22T07:07:01.171Z,-4.6
2018-12-22T07:07:51.228Z,-4.6
2018-12-22T07:08:41.011Z,-4.6
2018-12-22T07:09:31.072Z,-4.6
2018-12-22T07:10:21.133Z,-4.6
2018-12-22T07:11:11.463Z,-4.5
2018-12-22T07:12:01.508Z,-4.5
2018-12-22T07:12:51.291Z,-4.5
2018-12-22T07:13:41.702Z,-4.4
2018-12-22T07:14:31.403Z,-4.4
2018-12-22T07:15:21.743Z,-4.4
2018-12-22T07:16:11.804Z,-4.4
2018-12-22T07:17:01.859Z,-4.3
2018-12-22T07:17:51.894Z,-4.3
2018-12-22T07:18:41.691Z,-4.3
2018-12-22T07:19:32.048Z,-4.2
2018-12-22T07:20:22.070Z,-4.1
2018-12-22T07:21:12.157Z,-4.1
2018-12-22T07:22:02.185Z,-4.1
2018-12-22T07:22:52.485Z,-4.1
2018-12-22T07:23:42.290Z,-3.9
2018-12-22T07:24:32.369Z,-3.9
2018-12-22T07:25:22.413Z,-3.9
2018-12-22T07:26:12.459Z,-3.8
2018-12-22T07:27:52.578Z,-3.7
2018-12-22T07:28:42.637Z,-3.6
2018-12-22T07:29:32.424Z,-3.6
2018-12-22T07:30:28.081Z,-3.5
2018-12-22T07:31:12.797Z,-3.4
2018-12-22T07:32:02.851Z,-3.4
2018-12-22T07:32:58.459Z,-3.4
2018-12-22T07:33:42.977Z,-3.3
2018-12-22T07:34:32.754Z,-3.3
2018-12-22T07:35:22.805Z,-3.2
2018-12-22T07:36:12.871Z,-3.2
2018-12-22T07:37:03.196Z,-3.1
2018-12-22T07:37:53.241Z,-3.1
2018-12-22T07:38:43.389Z,-3
2018-12-22T07:39:32.881Z,-3
2018-12-22T07:40:22.947Z,-2.9
2018-12-22T07:41:12.999Z,-2.9
2018-12-22T07:42:03.051Z,-2.8
2018-12-22T07:42:53.111Z,-2.8
2018-12-22T07:43:42.896Z,-2.7
2018-12-22T07:44:33.221Z,-2.6
2018-12-22T07:45:23.266Z,-2.6
2018-12-22T07:46:13.537Z,-2.5
2018-12-22T07:47:03.386Z,-2.5
2018-12-22T07:47:53.438Z,-2.4
2018-12-22T07:48:43.504Z,-2.4
2018-12-22T07:49:33.563Z,-2.3
2018-12-22T07:50:23.619Z,-2.3
2018-12-22T07:51:13.660Z,-2.2
2018-12-22T07:52:04.209Z,-2.1
2018-12-22T07:52:54.260Z,-2.1
2018-12-22T07:53:44.039Z,-2.1
2018-12-22T07:54:34.091Z,-2
2018-12-22T07:55:24.427Z,-1.9
2018-12-22T07:56:14.487Z,-1.9
2018-12-22T07:57:04.533Z,-1.9
2018-12-22T07:57:54.590Z,-1.8
2018-12-22T07:58:44.650Z,-1.7
2018-12-22T07:59:34.695Z,-1.7
2018-12-22T08:00:24.484Z,-1.6
2018-12-22T08:01:14.865Z,-1.6
2018-12-22T08:02:04.611Z,-1.5
2018-12-22T08:02:55.182Z,-1.4
2018-12-22T08:03:44.996Z,-1.4
2018-12-22T08:04:35.039Z,-1.3
2018-12-22T08:05:24.825Z,-1.3
2018-12-22T08:06:14.885Z,-1.2
2018-12-22T08:07:05.208Z,-1.1
2018-12-22T08:07:55.262Z,-1
2018-12-22T08:09:35.379Z,-0.8
2018-12-22T08:10:25.162Z,-0.8
2018-12-22T08:11:15.502Z,-0.6
2018-12-22T08:12:05.267Z,-0.6
2018-12-22T08:12:55.607Z,-0.4
2018-12-22T08:13:45.659Z,-0.4
2018-12-22T08:14:35.694Z,-0.3
2018-12-22T08:15:25.771Z,-0.1
2018-12-22T08:16:15.854Z,-0.1
2018-12-22T08:17:05.894Z,0.1
2018-12-22T08:17:55.941Z,0.2
2018-12-22T08:18:45.996Z,0.3
2018-12-22T08:19:36.109Z,0.4
2018-12-22T08:20:25.629Z,0.4
2018-12-22T08:21:15.697Z,0.5
2018-12-22T08:22:05.744Z,0.6
2018-12-22T08:22:55.800Z,0.7
2018-12-22T08:23:45.856Z,0.8
2018-12-22T08:24:36.396Z,0.9
2018-12-22T08:25:26.178Z,0.9
2018-12-22T08:26:16.808Z,1.1
2018-12-22T08:27:06.276Z,1.1
2018-12-22T08:27:56.338Z,1.3
2018-12-22T08:28:46.402Z,1.3
2018-12-22T08:29:36.729Z,1.4
2018-12-22T08:30:26.786Z,1.5
2018-12-22T08:31:16.563Z,1.7
2018-12-22T08:32:06.901Z,1.8
2018-12-22T08:32:56.961Z,1.9
2018-12-22T08:33:46.738Z,2.1
2018-12-22T08:34:36.796Z,2.3
2018-12-22T08:35:27.128Z,2.3
2018-12-22T08:36:16.958Z,2.5
2018-12-22T08:37:07.250Z,2.6
2018-12-22T08:37:57.283Z,2.8
2018-12-22T08:38:47.350Z,3
2018-12-22T08:39:37.400Z,3.1
2018-12-22T08:40:27.468Z,3.3
2018-12-22T08:41:17.240Z,3.4
2018-12-22T08:42:07.881Z,3.6
2018-12-22T08:42:57.358Z,3.7
2018-12-22T08:43:47.680Z,3.9
2018-12-22T08:44:37.730Z,4
2018-12-22T08:45:27.533Z,4.1
2018-12-22T08:46:17.855Z,4.3
2018-12-22T08:47:08.157Z,4.5
2018-12-22T08:47:57.965Z,4.6
2018-12-22T08:48:47.747Z,4.8
2018-12-22T08:49:38.075Z,4.9
2018-12-22T08:50:28.430Z,5.1
2018-12-22T08:51:18.187Z,5.3
2018-12-22T08:52:07.968Z,5.4
2018-12-22T08:52:58.023Z,5.6
2018-12-22T08:53:48.350Z,5.7
2018-12-22T08:54:38.412Z,5.8
2018-12-22T08:55:28.732Z,5.9
2018-12-22T08:56:18.259Z,6.1
2018-12-22T08:57:08.582Z,6.2
2018-12-22T08:57:58.724Z,6.3
2018-12-22T08:58:48.706Z,6.4
2018-12-22T08:59:39.007Z,6.5
2018-12-22T09:00:28.814Z,6.6
2018-12-22T09:16:18.925Z,7.8
2018-12-22T09:17:08.710Z,7.9
2018-12-22T09:17:59.035Z,8.1
2018-12-22T09:18:49.063Z,8.3
2018-12-22T09:19:38.860Z,8.4
2018-12-22T09:20:29.209Z,8.6
2018-12-22T09:21:19.275Z,8.8
2018-12-22T09:22:09.316Z,9
2018-12-22T09:22:59.362Z,9.2
2018-12-22T09:23:49.678Z,9.4
2018-12-22T09:24:39.477Z,9.8
2018-12-22T09:25:29.797Z,10.2
2018-12-22T09:26:19.592Z,10.6
2018-12-22T09:27:09.642Z,11.3
2018-12-22T09:27:59.699Z,12
2018-12-22T09:28:49.749Z,13.1
2018-12-22T09:29:39.824Z,14.8
2018-12-22T09:30:29.877Z,16.6
2018-12-22T09:31:19.647Z,18.2
2018-12-22T09:32:09.986Z,19.3
2018-12-22T09:33:00.049Z,20
2018-12-22T09:33:49.869Z,20.5
2018-12-22T09:34:39.876Z,20.8
2018-12-22T09:35:29.936Z,21
2018-12-22T09:36:20.262Z,21.2
2018-12-22T09:37:10.331Z,21.3
2018-12-22T09:38:00.096Z,21.3
2018-12-22T09:38:50.677Z,21.3
2018-12-22T09:39:40.489Z,21.2
2018-12-22T09:40:30.539Z,21.2
2018-12-22T09:42:10.433Z,21.1
2018-12-22T09:43:00.981Z,21.1
2018-12-22T09:45:30.608Z,21.2
2018-12-22T09:46:20.938Z,21.3
2018-12-22T09:47:10.733Z,21.3
2018-12-22T09:48:00.521Z,21.4
2018-12-22T09:48:51.111Z,21.5
2018-12-22T09:49:40.898Z,21.6
2018-12-22T09:50:30.710Z,21.7
2018-12-22T09:51:21.280Z,21.8
2018-12-22T09:52:10.797Z,22
2018-12-22T09:53:01.408Z,22.2
2018-12-22T09:53:51.453Z,22.4
2018-12-22T09:54:41.503Z,22.5
2018-12-22T09:55:31.569Z,22.7
2018-12-22T09:56:21.703Z,22.9
2018-12-22T09:57:11.717Z,23.3
2018-12-22T09:58:01.455Z,23.6
2018-12-22T09:58:51.790Z,24.1
2018-12-22T09:59:41.842Z,24.5
2018-12-22T10:00:31.633Z,24.9
2018-12-22T10:01:21.952Z,25.3
2018-12-22T10:02:12.012Z,25.8
2018-12-22T10:03:02.070Z,26.3
2018-12-22T10:03:52.127Z,27
2018-12-22T10:04:41.906Z,27.7
2018-12-22T10:05:32.236Z,28.4
2018-12-22T10:06:22.305Z,29.2
2018-12-22T10:07:12.107Z,27.1
2018-12-22T10:08:02.409Z,7.5
2018-12-22T10:08:52.469Z,17.9
2018-12-22T10:09:42.566Z,40.8
2018-12-22T10:10:32.577Z,42.4
2018-12-22T10:11:22.634Z,42.5
2018-12-22T10:12:12.684Z,40.5
2018-12-22T10:13:02.209Z,38.6
2018-12-22T10:13:52.821Z,37.4
2018-12-22T10:14:42.591Z,36.5
2018-12-22T10:15:33.032Z,35.9
2018-12-22T10:16:22.976Z,35.4
2018-12-22T10:17:13.034Z,35.1
2018-12-22T10:18:03.217Z,34.8
2018-12-22T10:18:53.153Z,34.5
2018-12-22T10:19:43.199Z,34.3
2018-12-22T10:20:33.261Z,34.1
2018-12-22T10:21:23.327Z,33.9
2018-12-22T10:22:13.101Z,33.8
2018-12-22T10:23:03.430Z,33.6
2018-12-22T10:23:53.208Z,33.5
2018-12-22T10:24:43.273Z,33.3
2018-12-22T10:25:33.598Z,33.2
2018-12-22T10:26:23.653Z,33.1
2018-12-22T10:27:13.710Z,32.9
2018-12-22T10:28:03.784Z,32.8
2018-12-22T10:28:53.826Z,32.8
2018-12-22T10:29:43.905Z,36.9
2018-12-22T10:30:33.658Z,37.2
2018-12-22T10:31:24.003Z,36.8
2018-12-22T10:32:14.050Z,36.9
2018-12-22T10:33:04.107Z,37.8
2018-12-22T10:33:53.896Z,38.9
2018-12-22T10:34:44.227Z,39.1
2018-12-22T10:35:34.278Z,38.8
2018-12-22T10:36:24.340Z,38.5
2018-12-22T10:37:14.690Z,38.4
2018-12-22T10:38:04.180Z,38.3
2018-12-22T10:38:54.487Z,38.4
2018-12-22T10:39:44.300Z,38.6
2018-12-22T10:40:34.448Z,38.7
2018-12-22T10:41:24.685Z,38.9
2018-12-22T10:42:14.260Z,39
2018-12-22T10:43:04.052Z,39.1
2018-12-22T10:43:54.372Z,39.1
2018-12-22T10:44:44.682Z,39.3
2018-12-22T10:45:34.690Z,39.3
2018-12-22T10:46:24.546Z,39.4
2018-12-22T10:47:14.816Z,39.4
2018-12-22T10:48:04.657Z,39.6
2018-12-22T10:48:55.192Z,39.7
2018-12-22T10:49:44.767Z,39.8
2018-12-22T10:50:35.307Z,39.9
2018-12-22T10:51:25.446Z,40
2018-12-22T10:52:14.682Z,40.1
2018-12-22T10:53:04.998Z,40.2
2018-12-22T10:53:55.052Z,40.3
2018-12-22T10:54:45.103Z,40.4
2018-12-22T10:55:35.169Z,40.4
2018-12-22T10:56:25.227Z,40.5
2018-12-22T10:57:15.285Z,40.6
2018-12-22T10:58:05.343Z,40.8
2018-12-22T10:58:55.445Z,40.9
2018-12-22T10:59:45.450Z,40.9
2018-12-22T11:00:35.510Z,41
2018-12-22T11:01:27.548Z,41.1
2018-12-22T11:02:15.341Z,41.1
2018-12-22T11:03:05.672Z,41.2
2018-12-22T11:03:55.735Z,41.3
2018-12-22T11:04:45.780Z,41.3
2018-12-22T11:05:35.844Z,41.4
2018-12-22T11:06:25.899Z,41.4
2018-12-22T11:07:15.959Z,41.4
2018-12-22T11:08:06.018Z,41.4
2018-12-22T11:08:55.801Z,41.5
2018-12-22T11:09:46.139Z,41.6
2018-12-22T11:10:36.533Z,41.6
2018-12-22T11:11:26.242Z,41.7
2018-12-22T11:12:16.306Z,41.8
2018-12-22T11:13:06.358Z,41.8
2018-12-22T11:13:56.148Z,41.7
2018-12-22T11:14:46.472Z,41.7
2018-12-22T11:15:36.731Z,41.7
2018-12-22T11:16:26.584Z,41.7
2018-12-22T11:17:16.369Z,41.7
2018-12-22T11:18:06.916Z,41.7
2018-12-22T11:18:57.225Z,41.7
2018-12-22T11:19:47.282Z,41.7
2018-12-22T11:20:37.337Z,41.6
2018-12-22T11:21:27.405Z,41.6
2018-12-22T11:22:17.455Z,41.6
2018-12-22T11:23:07.517Z,41.5
2018-12-22T11:23:57.564Z,41.4
2018-12-22T11:24:47.346Z,41.4
2018-12-22T11:25:37.404Z,41.4
2018-12-22T11:26:27.731Z,41.4
2018-12-22T11:27:17.796Z,41.4
2018-12-22T11:28:07.848Z,41.5
2018-12-22T11:28:57.905Z,41.6
2018-12-22T11:29:47.960Z,41.6
2018-12-22T11:30:37.743Z,41.6
2018-12-22T11:31:36.420Z,41.6
2018-12-22T11:32:17.850Z,41.6
2018-12-22T11:33:08.196Z,41.6
2018-12-22T11:33:57.980Z,41.6
2018-12-22T11:34:48.299Z,41.6
2018-12-22T11:35:38.370Z,41.6
2018-12-22T11:36:28.409Z,41.6
2018-12-22T11:37:18.827Z,41.6
2018-12-22T11:38:08.245Z,41.6
2018-12-22T11:38:58.590Z,41.6
2018-12-22T11:39:48.640Z,41.6
2018-12-22T11:40:38.747Z,41.7
2018-12-22T11:41:28.750Z,41.8
2018-12-22T11:42:18.810Z,41.9
2018-12-22T11:43:08.587Z,42
2018-12-22T11:43:58.644Z,42.1
2018-12-22T11:44:48.980Z,42.1
2018-12-22T11:45:39.037Z,42.2
2018-12-22T11:46:28.825Z,42.3
2018-12-22T11:47:19.147Z,42.3
2018-12-22T11:48:09.207Z,42.3
2018-12-22T11:48:59.259Z,42.3
2018-12-22T11:49:49.317Z,42.3
2018-12-22T11:50:39.364Z,42.3
2018-12-22T11:51:29.151Z,42.3
2018-12-22T11:52:19.489Z,42.3
2018-12-22T11:53:09.269Z,42.3
2018-12-22T11:53:59.601Z,42.3
2018-12-22T11:54:49.376Z,42.3
2018-12-22T11:55:39.436Z,42.3
2018-12-22T11:56:30.014Z,42.3
2018-12-22T11:57:19.829Z,42.3
2018-12-22T11:58:09.881Z,42.3
2018-12-22T11:58:59.949Z,42.3
2018-12-22T11:59:50.005Z,42.3
2018-12-22T12:00:39.776Z,42.3
2018-12-22T12:01:29.558Z,42.3
2018-12-22T12:02:20.168Z,42.3
2018-12-22T12:03:09.958Z,42.3
2018-12-22T12:04:00.286Z,42.3